Time;durP1;ratioP1;P1;durP2;ratioP2;P2;SDS_P1;SDS_P2;PMS_P1;PMS_P2;Temp;Humidity;BMP_temperature;BMP_pressure;BME280_temperature;BME280_humidity;BME280_pressure;Samples;Min_cycle;Max_cycle;Signal;HPM_P1;HPM_P2
2023/03/12 00:01:22;;;;;;;1.67;0.30;;;;;;;9.16;55.08;99840.97;5049143;28;20040;-76
2023/03/12 00:03:49;;;;;;;0.82;0.40;;;;;;;9.10;54.43;99847.56;5051957;28;20025;-75
2023/03/12 00:06:15;;;;;;;1.00;0.32;;;;;;;9.03;54.69;99853.53;5042188;28;20119;-74
2023/03/12 00:08:41;;;;;;;1.48;0.45;;;;;;;9.01;54.38;99843.28;5047889;28;20043;-74
2023/03/12 00:11:11;;;;;;;0.90;0.43;;;;;;;9.00;54.72;99852.03;5026955;28;20119;-74
2023/03/12 00:13:37;;;;;;;0.85;0.30;;;;;;;8.95;54.10;99852.50;5045808;28;20078;-74
2023/03/12 00:16:09;;;;;;;1.23;0.40;;;;;;;8.92;54.33;99852.00;5040746;28;20148;-75
2023/03/12 00:18:34;;;;;;;1.65;1.10;;;;;;;8.91;54.71;99861.56;5058344;28;20033;-74
2023/03/12 00:21:00;;;;;;;0.77;0.30;;;;;;;8.92;53.08;99859.78;5040865;28;20048;-74
2023/03/12 00:23:26;;;;;;;1.25;0.35;;;;;;;8.95;53.33;99878.50;5028922;28;20041;-74
2023/03/12 00:25:51;;;;;;;2.15;0.40;;;;;;;9.03;54.11;99877.72;5045428;28;20139;-75
2023/03/12 00:28:16;;;;;;;0.60;0.30;;;;;;;8.98;54.78;99885.97;5055919;28;20028;-75
2023/03/12 00:30:42;;;;;;;1.08;0.32;;;;;;;9.04;55.61;99894.13;5057962;28;20047;-75
2023/03/12 00:33:09;;;;;;;2.28;0.30;;;;;;;9.03;54.76;99882.09;5053333;28;20091;-75
2023/03/12 00:35:37;;;;;;;1.58;0.30;;;;;;;8.95;54.86;99886.28;5041810;28;20083;-74
2023/03/12 00:38:02;;;;;;;1.25;0.50;;;;;;;8.87;54.13;99907.00;5048969;28;20035;-74
2023/03/12 00:40:27;;;;;;;1.30;0.30;;;;;;;8.82;53.05;99900.59;5038851;28;20120;-74
2023/03/12 00:42:53;;;;;;;1.42;0.30;;;;;;;8.78;52.48;99915.66;5036292;28;20097;-74
2023/03/12 00:45:18;;;;;;;0.52;0.30;;;;;;;8.74;52.12;99916.91;5034315;28;20091;-74
2023/03/12 00:47:44;;;;;;;3.13;0.60;;;;;;;8.69;52.54;99916.53;5031041;28;20033;-75
2023/03/12 00:50:09;;;;;;;0.80;0.30;;;;;;;8.66;52.60;99906.41;5044765;28;20086;-74
2023/03/12 00:52:35;;;;;;;1.25;0.20;;;;;;;8.62;51.55;99910.28;5036919;28;20033;-74
2023/03/12 00:55:00;;;;;;;1.90;0.30;;;;;;;8.55;51.74;99932.59;5029399;28;20044;-75
2023/03/12 00:57:26;;;;;;;0.82;0.30;;;;;;;8.61;51.64;99926.81;5014902;28;20735;-73
2023/03/12 00:59:51;;;;;;;0.77;0.30;;;;;;;8.61;51.96;99935.41;5040487;28;20071;-74
2023/03/12 01:02:16;;;;;;;4.28;0.85;;;;;;;8.57;51.63;99941.88;5043680;28;20032;-73
2023/03/12 01:04:42;;;;;;;0.50;0.20;;;;;;;8.54;52.10;99938.72;5046682;28;20076;-74
2023/03/12 01:07:07;;;;;;;0.60;0.20;;;;;;;8.53;53.18;99927.53;5047071;28;20025;-75
2023/03/12 01:09:33;;;;;;;0.50;0.20;;;;;;;8.54;54.08;99949.13;5026668;28;20143;-75
2023/03/12 01:11:58;;;;;;;1.08;0.38;;;;;;;8.44;55.06;99953.56;5048455;28;20472;-75
2023/03/12 01:14:24;;;;;;;1.05;0.30;;;;;;;8.38;55.07;99962.75;5046532;28;20021;-75
2023/03/12 01:16:49;;;;;;;2.90;0.28;;;;;;;8.40;55.28;99972.97;5037834;28;20033;-75
2023/03/12 01:19:15;;;;;;;1.45;0.30;;;;;;;8.43;55.25;99967.50;5047611;28;20036;-75
2023/03/12 01:21:40;;;;;;;1.45;0.30;;;;;;;8.46;56.10;99965.44;5034487;28;20074;-74
2023/03/12 01:24:06;;;;;;;2.08;0.20;;;;;;;8.36;57.33;99969.84;5049768;28;20112;-75
2023/03/12 01:26:31;;;;;;;1.23;0.20;;;;;;;8.29;56.04;99971.34;5041995;28;20389;-75
2023/03/12 01:28:57;;;;;;;1.00;0.20;;;;;;;8.25;52.62;99972.59;5041236;28;20139;-74
2023/03/12 01:31:22;;;;;;;2.30;0.25;;;;;;;8.25;53.59;99965.63;5034144;28;20179;-75
2023/03/12 01:33:49;;;;;;;1.13;0.22;;;;;;;8.22;52.01;99957.28;5042208;28;20029;-74
2023/03/12 01:36:20;;;;;;;2.88;0.30;;;;;;;8.16;51.75;99965.63;5035395;28;20049;-74
2023/03/12 01:38:46;;;;;;;1.98;0.30;;;;;;;8.16;52.10;99956.06;5045821;28;21783;-75
2023/03/12 01:41:12;;;;;;;3.58;0.25;;;;;;;8.12;51.95;99970.28;5055724;28;20465;-75
2023/03/12 01:43:38;;;;;;;1.27;0.20;;;;;;;8.11;52.44;99976.44;5053877;28;20124;-74
2023/03/12 01:46:35;;;;;;;4.85;0.80;;;;;;;8.09;52.41;99975.75;5046554;28;20112;-75
2023/03/12 01:49:02;;;;;;;0.52;0.17;;;;;;;8.12;54.54;99980.66;5051391;28;20388;-75
2023/03/12 01:51:37;;;;;;;1.65;0.25;;;;;;;8.14;54.81;99978.75;5054340;28;20051;-75
2023/03/12 01:54:08;;;;;;;0.50;0.20;;;;;;;8.11;55.81;99971.25;5043971;28;20037;-75
2023/03/12 01:56:37;;;;;;;0.88;0.30;;;;;;;8.01;56.42;99978.25;5050121;28;20045;-75
2023/03/12 01:59:11;;;;;;;2.22;0.20;;;;;;;7.95;56.33;99973.63;5054518;28;20037;-75
2023/03/12 02:01:37;;;;;;;2.08;0.20;;;;;;;7.97;55.47;99985.50;5055391;28;20496;-75
2023/03/12 02:04:04;;;;;;;0.50;0.20;;;;;;;8.00;55.86;99992.19;5057480;28;20044;-75
2023/03/12 02:06:42;;;;;;;2.83;0.20;;;;;;;7.97;55.77;99988.09;5048334;28;20050;-75
2023/03/12 02:09:08;;;;;;;1.38;0.20;;;;;;;7.94;57.94;99987.56;5048348;28;20039;-75
2023/03/12 02:11:34;;;;;;;0.52;0.20;;;;;;;7.86;59.43;99985.66;5049847;28;20036;-75
2023/03/12 02:14:00;;;;;;;0.30;0.20;;;;;;;7.78;58.94;99982.09;5043062;28;20033;-76
2023/03/12 02:16:26;;;;;;;3.80;0.20;;;;;;;7.79;58.84;99987.16;5046756;28;20174;-75
2023/03/12 02:18:55;;;;;;;3.15;0.17;;;;;;;7.76;59.12;99984.03;5046824;28;20036;-75
2023/03/12 02:21:24;;;;;;;0.60;0.20;;;;;;;7.69;59.73;99986.34;5059114;28;20098;-75
2023/03/12 02:24:14;;;;;;;0.75;0.22;;;;;;;7.57;58.63;99993.44;5053205;28;20032;-75
2023/03/12 02:26:40;;;;;;;0.50;0.20;;;;;;;7.47;59.75;100002.19;5048141;28;20035;-75
2023/03/12 02:29:07;;;;;;;2.25;0.60;;;;;;;7.47;56.23;100000.41;5043414;28;20029;-74
2023/03/12 02:31:39;;;;;;;0.38;0.20;;;;;;;7.45;53.37;100012.69;5040467;28;20433;-75
2023/03/12 02:34:05;;;;;;;1.88;0.20;;;;;;;7.46;51.93;99998.78;5030314;28;20033;-73
2023/03/12 02:36:30;;;;;;;0.95;0.20;;;;;;;7.47;51.77;100009.97;5047447;28;20034;-74
2023/03/12 02:38:56;;;;;;;0.65;0.30;;;;;;;7.47;50.57;100005.59;5048673;28;20040;-73
2023/03/12 02:41:53;;;;;;;2.40;0.30;;;;;;;7.49;50.90;100005.47;5042449;28;20036;-74
2023/03/12 02:44:26;;;;;;;0.60;0.15;;;;;;;7.58;51.73;100009.81;5047929;28;20040;-75
2023/03/12 02:46:54;;;;;;;0.40;0.20;;;;;;;7.59;52.06;100020.03;5043071;28;20021;-75
2023/03/12 02:49:22;;;;;;;0.60;0.20;;;;;;;7.56;53.56;100025.50;5049132;28;20075;-75
2023/03/12 02:51:48;;;;;;;0.73;0.50;;;;;;;7.50;54.21;100036.44;5049594;28;21369;-75
2023/03/12 02:54:16;;;;;;;0.30;0.10;;;;;;;7.38;54.82;100042.69;5039712;28;20526;-75
2023/03/12 02:56:41;;;;;;;1.27;0.20;;;;;;;7.28;54.46;100028.91;5055337;28;20041;-75
2023/03/12 02:59:08;;;;;;;0.75;0.30;;;;;;;7.25;51.60;100052.47;5050171;28;20032;-74
2023/03/12 03:01:34;;;;;;;0.65;0.20;;;;;;;7.18;50.72;100051.38;5045702;28;20444;-73
2023/03/12 03:04:00;;;;;;;0.98;0.30;;;;;;;7.13;49.69;100048.34;5047555;28;20124;-73
2023/03/12 03:06:26;;;;;;;1.05;0.20;;;;;;;7.08;49.40;100051.38;5056561;28;20064;-73
2023/03/12 03:08:51;;;;;;;0.50;0.20;;;;;;;7.03;49.47;100050.94;5063989;28;20060;-74
2023/03/12 03:11:18;;;;;;;0.60;0.20;;;;;;;6.94;49.71;100055.13;5039687;28;20091;-73
2023/03/12 03:13:43;;;;;;;0.90;0.30;;;;;;;6.93;49.52;100050.91;5044359;28;20047;-73
2023/03/12 03:16:11;;;;;;;2.25;0.40;;;;;;;7.06;48.97;100052.44;5050620;28;20044;-75
2023/03/12 03:18:37;;;;;;;0.57;0.20;;;;;;;7.01;49.62;100062.38;5046905;28;20029;-73
2023/03/12 03:21:07;;;;;;;1.08;0.40;;;;;;;7.08;49.31;100061.72;5046955;28;20049;-73
2023/03/12 03:23:33;;;;;;;0.88;0.20;;;;;;;7.04;50.71;100069.91;5053954;28;20098;-73
2023/03/12 03:25:59;;;;;;;2.83;0.30;;;;;;;6.97;51.95;100073.00;5047961;28;20735;-75
2023/03/12 03:28:26;;;;;;;0.60;0.20;;;;;;;6.88;53.04;100086.72;5057823;28;20078;-74
2023/03/12 03:30:54;;;;;;;0.60;0.13;;;;;;;6.76;53.71;100092.94;5047894;28;20103;-74
2023/03/12 03:33:20;;;;;;;1.50;0.10;;;;;;;6.77;53.20;100097.16;5053557;28;20036;-74
2023/03/12 03:35:47;;;;;;;1.10;0.30;;;;;;;6.78;53.02;100098.00;5048054;28;20429;-74
2023/03/12 03:38:12;;;;;;;0.98;0.28;;;;;;;6.78;51.26;100100.56;5051656;28;20087;-74
2023/03/12 03:40:38;;;;;;;1.60;0.25;;;;;;;6.74;52.23;100094.84;5041727;28;20025;-74
2023/03/12 03:43:03;;;;;;;0.90;0.30;;;;;;;6.77;51.17;100099.75;5045235;28;20039;-73
2023/03/12 03:45:28;;;;;;;2.72;0.20;;;;;;;6.86;50.27;100108.53;5048055;28;20032;-73
2023/03/12 03:47:54;;;;;;;0.70;0.30;;;;;;;6.89;50.15;100103.09;5042720;28;20052;-74
2023/03/12 03:50:19;;;;;;;1.85;0.22;;;;;;;6.77;50.07;100112.69;5049839;28;20036;-73
2023/03/12 03:52:45;;;;;;;0.60;0.20;;;;;;;6.75;50.83;100108.59;5038365;28;20362;-74
2023/03/12 03:55:10;;;;;;;0.95;0.20;;;;;;;6.75;50.29;100112.00;5051465;28;20025;-73
2023/03/12 03:57:36;;;;;;;0.75;0.20;;;;;;;6.76;50.15;100129.19;5049211;28;20040;-72
2023/03/12 04:00:07;;;;;;;1.17;0.30;;;;;;;6.76;50.82;100118.00;5049983;28;20067;-74
2023/03/12 04:02:33;;;;;;;1.65;0.30;;;;;;;6.73;50.26;100121.66;5047716;28;20037;-73
2023/03/12 04:04:59;;;;;;;0.63;0.30;;;;;;;6.77;50.85;100123.06;5047407;28;20021;-74
2023/03/12 04:07:26;;;;;;;1.40;0.20;;;;;;;6.76;51.48;100141.31;5058260;28;20047;-74
2023/03/12 04:09:52;;;;;;;0.75;0.20;;;;;;;6.73;51.40;100128.63;5057649;28;20048;-74
2023/03/12 04:12:17;;;;;;;1.98;0.32;;;;;;;6.71;52.79;100140.88;5035837;28;20037;-75
2023/03/12 04:14:43;;;;;;;1.80;0.40;;;;;;;6.37;54.11;100150.59;5049322;28;20037;-74
2023/03/12 04:17:08;;;;;;;4.55;0.40;;;;;;;6.20;54.08;100164.91;5050657;28;20094;-75
2023/03/12 04:19:34;;;;;;;1.10;0.45;;;;;;;6.20;54.49;100157.13;5053150;28;20036;-74
2023/03/12 04:21:59;;;;;;;1.20;0.22;;;;;;;6.21;55.65;100175.13;5049450;28;20037;-74
2023/03/12 04:24:25;;;;;;;2.65;0.20;;;;;;;6.35;52.61;100161.09;5053776;28;20036;-73
2023/03/12 04:26:50;;;;;;;0.88;0.20;;;;;;;6.48;52.14;100163.50;5058544;28;20025;-74
2023/03/12 04:29:17;;;;;;;1.30;0.25;;;;;;;6.50;51.61;100156.44;5054833;28;20038;-74
2023/03/12 04:31:43;;;;;;;1.70;0.30;;;;;;;6.52;51.54;100159.72;5056382;28;20037;-74
2023/03/12 04:34:09;;;;;;;1.65;0.20;;;;;;;6.50;50.77;100171.97;5044354;28;20057;-75
2023/03/12 04:36:34;;;;;;;2.05;0.30;;;;;;;6.47;51.45;100160.09;5044560;28;20034;-74
2023/03/12 04:39:00;;;;;;;0.75;0.20;;;;;;;6.45;51.85;100164.56;5043733;28;20025;-74
2023/03/12 04:41:26;;;;;;;1.08;0.20;;;;;;;6.43;51.66;100169.03;5044512;28;20044;-74
2023/03/12 04:43:51;;;;;;;2.00;0.20;;;;;;;6.27;53.72;100163.47;5040783;28;20116;-74
2023/03/12 04:46:16;;;;;;;0.73;0.20;;;;;;;6.19;54.15;100171.84;5041964;28;20036;-74
2023/03/12 04:48:42;;;;;;;0.85;0.20;;;;;;;6.14;54.92;100170.59;5046196;28;20037;-74
2023/03/12 04:51:07;;;;;;;0.88;0.20;;;;;;;6.13;55.45;100171.53;5031678;28;20060;-74
2023/03/12 04:53:33;;;;;;;0.95;0.20;;;;;;;6.06;56.40;100181.56;5037747;28;20043;-74
2023/03/12 04:55:58;;;;;;;3.92;0.20;;;;;;;5.93;57.81;100176.53;5045044;28;20033;-75
2023/03/12 04:58:24;;;;;;;0.70;0.20;;;;;;;5.85;58.38;100198.72;5044576;28;20390;-74
2023/03/12 05:00:49;;;;;;;2.08;0.30;;;;;;;5.75;58.95;100198.63;5053276;28;20024;-74
2023/03/12 05:03:16;;;;;;;4.63;0.30;;;;;;;5.63;59.62;100205.59;5032879;28;20060;-74
2023/03/12 05:05:41;;;;;;;1.00;0.20;;;;;;;5.57;59.26;100213.81;5052961;28;21690;-74
2023/03/12 05:08:07;;;;;;;0.38;0.10;;;;;;;5.60;57.22;100216.16;5050053;28;20020;-73
2023/03/12 05:10:33;;;;;;;0.65;0.20;;;;;;;5.97;53.86;100215.91;5031753;28;20142;-74
2023/03/12 05:12:58;;;;;;;0.60;0.20;;;;;;;6.27;51.26;100217.78;5053073;28;20398;-73
2023/03/12 05:15:23;;;;;;;2.25;0.20;;;;;;;6.38;51.94;100217.75;5040844;28;20067;-73
2023/03/12 05:17:49;;;;;;;1.90;0.20;;;;;;;6.35;50.85;100212.00;5043467;28;20037;-73
2023/03/12 05:20:16;;;;;;;1.00;0.25;;;;;;;6.29;51.52;100224.50;5053845;28;20557;-73
2023/03/12 05:22:43;;;;;;;1.02;0.20;;;;;;;6.26;53.08;100227.31;5051339;28;20033;-74
2023/03/12 05:25:09;;;;;;;2.60;0.35;;;;;;;6.16;54.08;100234.16;5056204;28;20036;-74
2023/03/12 05:27:34;;;;;;;5.60;2.88;;;;;;;5.96;55.57;100234.94;5018476;28;20030;-74
2023/03/12 05:30:00;;;;;;;1.48;0.50;;;;;;;5.84;56.50;100239.28;5048906;28;20028;-74
2023/03/12 05:32:26;;;;;;;0.77;0.20;;;;;;;5.56;57.93;100244.94;5045610;28;20121;-74
2023/03/12 05:34:51;;;;;;;0.77;0.20;;;;;;;5.39;59.21;100248.81;5042105;28;20483;-74
2023/03/12 05:37:17;;;;;;;1.10;0.20;;;;;;;5.33;59.15;100250.09;5043780;28;20495;-74
2023/03/12 05:39:45;;;;;;;1.08;0.20;;;;;;;5.37;59.05;100255.84;5049564;28;20119;-74
2023/03/12 05:42:14;;;;;;;1.10;0.30;;;;;;;5.38;57.88;100261.84;5042941;28;20396;-74
2023/03/12 05:44:41;;;;;;;0.52;0.10;;;;;;;5.43;58.94;100260.56;5047678;28;20376;-74
2023/03/12 05:47:07;;;;;;;3.67;0.30;;;;;;;5.36;60.14;100264.53;5042691;28;20025;-74
2023/03/12 05:49:33;;;;;;;1.00;0.20;;;;;;;5.28;61.41;100261.72;5048225;28;20536;-74
2023/03/12 05:51:58;;;;;;;1.85;0.25;;;;;;;5.09;61.89;100270.03;5045081;28;20115;-74
2023/03/12 05:54:24;;;;;;;1.90;0.32;;;;;;;5.11;62.26;100275.09;5049253;28;20040;-74
2023/03/12 05:56:49;;;;;;;1.98;0.60;;;;;;;5.19;58.96;100267.59;5026435;28;20045;-73
2023/03/12 05:59:15;;;;;;;2.80;0.30;;;;;;;5.65;56.53;100270.91;5046818;28;20087;-73
2023/03/12 06:01:40;;;;;;;0.73;0.20;;;;;;;5.90;53.77;100285.38;5043516;28;20029;-74
2023/03/12 06:04:06;;;;;;;0.43;0.20;;;;;;;6.09;52.09;100296.88;5048396;28;20041;-73
2023/03/12 06:06:33;;;;;;;1.08;0.20;;;;;;;6.22;50.69;100289.78;5047341;28;20127;-72
2023/03/12 06:08:59;;;;;;;0.77;0.20;;;;;;;6.33;50.88;100298.34;5051490;28;20500;-73
2023/03/12 06:11:24;;;;;;;0.63;0.20;;;;;;;6.48;51.83;100301.50;5042830;28;20108;-74
2023/03/12 06:13:50;;;;;;;1.00;0.28;;;;;;;6.40;53.64;100300.44;5049830;28;20075;-75
2023/03/12 06:16:19;;;;;;;1.23;0.30;;;;;;;6.48;54.89;100300.66;5041410;28;20503;-74
2023/03/12 06:18:44;;;;;;;2.13;0.32;;;;;;;6.55;55.54;100307.81;5024564;28;20604;-74
2023/03/12 06:21:14;;;;;;;1.98;0.20;;;;;;;6.52;55.76;100310.66;5040826;28;20033;-74
2023/03/12 06:23:40;;;;;;;2.72;0.15;;;;;;;6.54;56.25;100320.88;5049057;28;20070;-75
2023/03/12 06:26:06;;;;;;;1.60;0.20;;;;;;;6.53;54.96;100327.84;5049044;28;20115;-74
2023/03/12 06:28:32;;;;;;;0.40;0.10;;;;;;;6.61;55.93;100324.63;5048459;28;20845;-74
2023/03/12 06:30:58;;;;;;;0.40;0.20;;;;;;;6.77;56.55;100330.22;5026162;28;20033;-74
2023/03/12 06:33:23;;;;;;;0.90;0.20;;;;;;;6.87;57.20;100332.88;5028880;28;20511;-74
2023/03/12 06:35:52;;;;;;;1.58;0.20;;;;;;;6.89;56.75;100333.59;5027334;28;20068;-74
2023/03/12 06:38:18;;;;;;;1.33;0.32;;;;;;;6.88;56.41;100337.13;5039775;28;20029;-74
2023/03/12 06:40:56;;;;;;;0.60;0.30;;;;;;;6.91;55.72;100340.28;5042077;28;20070;-74
2023/03/12 06:43:22;;;;;;;0.80;0.20;;;;;;;7.08;56.80;100345.88;5043038;28;20099;-74
2023/03/12 06:45:48;;;;;;;1.75;0.30;;;;;;;7.26;57.09;100354.72;5041914;28;20380;-75
2023/03/12 06:48:13;;;;;;;0.75;0.30;;;;;;;7.63;57.38;100353.31;5045633;28;20029;-74
2023/03/12 06:50:38;;;;;;;0.90;0.50;;;;;;;8.07;56.66;100361.69;5046406;28;20458;-75
2023/03/12 06:53:04;;;;;;;1.20;0.22;;;;;;;8.19;56.20;100365.84;5042956;28;20083;-75
2023/03/12 06:55:29;;;;;;;0.50;0.20;;;;;;;8.05;56.01;100363.59;5040308;28;20033;-75
2023/03/12 06:57:55;;;;;;;0.70;0.20;;;;;;;7.95;56.31;100378.31;5040362;28;20044;-74
2023/03/12 07:00:20;;;;;;;0.68;0.20;;;;;;;7.81;56.41;100371.69;5037179;28;20140;-74
2023/03/12 07:02:46;;;;;;;0.93;0.20;;;;;;;7.65;55.96;100366.97;5044940;28;20063;-75
2023/03/12 07:05:11;;;;;;;0.40;0.20;;;;;;;7.58;56.07;100376.19;5029140;28;20037;-74
2023/03/12 07:07:37;;;;;;;1.33;0.20;;;;;;;7.63;56.56;100379.22;5038944;28;20142;-75
2023/03/12 07:10:05;;;;;;;0.90;0.30;;;;;;;8.39;56.08;100381.50;5040521;28;20732;-75
2023/03/12 07:12:31;;;;;;;1.02;0.40;;;;;;;9.68;52.28;100377.69;5037166;28;20025;-75
2023/03/12 07:14:57;;;;;;;0.90;0.25;;;;;;;10.58;50.96;100387.47;5023415;28;20148;-75
2023/03/12 07:17:23;;;;;;;1.10;0.20;;;;;;;10.86;49.31;100391.69;5040014;28;20223;-75
2023/03/12 07:19:48;;;;;;;2.15;0.30;;;;;;;10.69;49.59;100392.47;5022708;28;20701;-75
2023/03/12 07:22:14;;;;;;;0.88;0.20;;;;;;;10.35;50.80;100381.03;5040865;28;20112;-75
2023/03/12 07:24:39;;;;;;;1.08;0.20;;;;;;;9.89;51.02;100380.09;5040250;28;20029;-75
2023/03/12 07:27:05;;;;;;;1.27;0.20;;;;;;;10.40;50.25;100379.59;5045792;28;20032;-75
2023/03/12 07:29:30;;;;;;;0.85;0.20;;;;;;;10.96;49.36;100378.56;5042040;28;21652;-74
2023/03/12 07:31:56;;;;;;;1.33;0.20;;;;;;;11.73;48.04;100377.84;5031267;28;20055;-74
2023/03/12 07:34:21;;;;;;;0.52;0.20;;;;;;;11.36;47.85;100380.69;5044231;28;20086;-74
2023/03/12 07:36:46;;;;;;;2.08;0.20;;;;;;;10.84;49.50;100382.38;5038018;28;20085;-75
2023/03/12 07:39:12;;;;;;;0.73;0.28;;;;;;;10.60;49.09;100375.13;5044764;28;20032;-75
2023/03/12 07:41:37;;;;;;;0.80;0.20;;;;;;;9.93;49.07;100382.25;5040997;28;20087;-75
2023/03/12 07:44:03;;;;;;;1.52;0.30;;;;;;;10.15;49.42;100381.09;5045860;28;20033;-74
2023/03/12 07:46:29;;;;;;;1.77;0.70;;;;;;;10.47;48.36;100385.88;5044236;28;20029;-74
2023/03/12 07:48:55;;;;;;;0.77;0.20;;;;;;;10.15;46.94;100386.28;5045755;28;20310;-75
2023/03/12 07:51:21;;;;;;;0.55;0.10;;;;;;;9.81;46.85;100382.59;5039466;28;20044;-74
2023/03/12 07:53:46;;;;;;;0.70;0.20;;;;;;;9.54;47.53;100383.31;5040365;28;20496;-74
2023/03/12 07:56:12;;;;;;;1.48;0.38;;;;;;;8.96;46.16;100381.59;5041604;28;20029;-74
2023/03/12 07:58:38;;;;;;;1.88;0.20;;;;;;;8.84;46.48;100377.50;5039796;28;20404;-74
2023/03/12 08:01:05;;;;;;;1.67;0.20;;;;;;;8.90;46.52;100376.13;5040299;28;20427;-75
2023/03/12 08:03:31;;;;;;;0.57;0.30;;;;;;;9.14;45.89;100384.31;5048064;28;20399;-75
2023/03/12 08:06:01;;;;;;;1.25;0.30;;;;;;;9.17;45.79;100391.03;5055847;28;20113;-75
2023/03/12 08:08:28;;;;;;;0.65;0.20;;;;;;;9.47;46.57;100382.22;5049569;28;20119;-75
2023/03/12 08:10:53;;;;;;;2.05;0.20;;;;;;;9.75;45.56;100388.34;5041614;28;20116;-75
2023/03/12 08:13:19;;;;;;;2.83;0.20;;;;;;;9.62;45.49;100389.47;5041933;28;20117;-74
2023/03/12 08:15:45;;;;;;;0.95;0.10;;;;;;;9.78;46.48;100391.50;5036502;28;20053;-74
2023/03/12 08:18:10;;;;;;;0.63;0.20;;;;;;;10.26;46.72;100390.53;5036651;28;20041;-74
2023/03/12 08:20:36;;;;;;;5.88;0.30;;;;;;;10.73;47.20;100393.81;5038982;28;20057;-74
2023/03/12 08:23:01;;;;;;;1.42;0.20;;;;;;;10.95;47.40;100406.41;5026686;28;20033;-73
2023/03/12 08:25:27;;;;;;;1.30;0.20;;;;;;;11.06;47.67;100407.97;5046114;28;20039;-73
2023/03/12 08:27:53;;;;;;;0.77;0.30;;;;;;;11.19;47.85;100412.84;5039217;28;20279;-74
2023/03/12 08:30:18;;;;;;;0.73;0.20;;;;;;;11.34;48.05;100413.94;5039841;28;20584;-73
2023/03/12 08:32:44;;;;;;;1.10;0.20;;;;;;;11.38;48.58;100423.09;5025532;28;20029;-74
2023/03/12 08:35:09;;;;;;;0.70;0.20;;;;;;;11.54;48.39;100418.00;5037407;28;20036;-73
2023/03/12 08:37:35;;;;;;;1.58;0.20;;;;;;;11.48;48.21;100423.81;5043957;28;20029;-74
2023/03/12 08:40:01;;;;;;;1.38;0.20;;;;;;;11.78;47.60;100420.00;5041282;28;20029;-73
2023/03/12 08:42:26;;;;;;;0.57;0.20;;;;;;;12.29;46.92;100426.13;5035999;28;20039;-74
2023/03/12 08:44:52;;;;;;;1.33;0.20;;;;;;;12.86;45.65;100432.38;5041997;28;20115;-73
2023/03/12 08:47:17;;;;;;;0.60;0.20;;;;;;;13.36;44.57;100433.28;5038241;28;20033;-74
2023/03/12 08:49:43;;;;;;;1.27;0.20;;;;;;;13.70;43.37;100427.91;5042484;28;20452;-75
2023/03/12 08:52:08;;;;;;;0.40;0.32;;;;;;;14.07;42.87;100422.91;5048216;28;20511;-74
2023/03/12 08:54:34;;;;;;;0.80;0.20;;;;;;;14.67;41.64;100430.22;5044909;28;20036;-74
2023/03/12 08:56:59;;;;;;;0.70;0.20;;;;;;;14.93;39.88;100440.41;5048008;28;20040;-75
2023/03/12 08:59:25;;;;;;;0.95;0.20;;;;;;;15.18;40.12;100448.91;5050293;28;20036;-75
2023/03/12 09:01:50;;;;;;;0.70;0.20;;;;;;;14.17;41.93;100454.97;5048902;28;20029;-75
2023/03/12 09:04:16;;;;;;;1.70;0.20;;;;;;;14.97;40.98;100454.00;5045927;28;20119;-71
2023/03/12 09:06:41;;;;;;;2.72;0.20;;;;;;;15.50;39.13;100447.88;5044473;28;20029;-74
2023/03/12 09:09:07;;;;;;;0.88;0.10;;;;;;;15.87;38.29;100453.13;5049743;28;20038;-75
2023/03/12 09:11:35;;;;;;;1.75;0.10;;;;;;;13.90;41.68;100463.19;5042561;28;20073;-74
2023/03/12 09:14:01;;;;;;;1.92;0.10;;;;;;;12.27;44.65;100467.28;5037691;28;20031;-76
2023/03/12 09:16:28;;;;;;;0.98;0.20;;;;;;;11.66;45.89;100472.56;5029470;28;21374;-76
2023/03/12 09:18:53;;;;;;;1.48;0.20;;;;;;;11.27;46.78;100483.31;5045302;28;20469;-76
2023/03/12 09:21:19;;;;;;;0.35;0.10;;;;;;;11.20;47.91;100471.84;5055850;28;20037;-79
2023/03/12 09:23:44;;;;;;;2.47;0.20;;;;;;;11.19;48.03;100475.41;5048766;28;20033;-78
2023/03/12 09:26:11;;;;;;;0.60;0.17;;;;;;;11.17;48.11;100483.38;5059009;28;20029;-77
2023/03/12 09:28:37;;;;;;;0.90;0.20;;;;;;;11.15;48.42;100474.06;5049232;28;20048;-78
2023/03/12 09:31:04;;;;;;;0.30;0.10;;;;;;;11.02;47.59;100476.22;5039485;28;23240;-78
2023/03/12 09:33:30;;;;;;;0.82;0.10;;;;;;;10.88;46.64;100477.53;5040651;28;20033;-73
2023/03/12 09:35:57;;;;;;;0.50;0.20;;;;;;;10.66;46.74;100478.75;5045259;28;20087;-73
2023/03/12 09:38:23;;;;;;;0.30;0.10;;;;;;;10.73;47.26;100479.81;5046008;28;20091;-72
2023/03/12 09:40:49;;;;;;;1.10;0.30;;;;;;;10.87;47.54;100487.13;5037978;28;20029;-74
2023/03/12 09:43:26;;;;;;;1.05;0.20;;;;;;;11.18;46.91;100495.47;5042413;28;20029;-74
2023/03/12 09:45:54;;;;;;;1.10;0.20;;;;;;;11.39;47.60;100491.72;5049677;28;20032;-74
2023/03/12 09:48:28;;;;;;;1.90;0.10;;;;;;;11.54;46.41;100493.66;5035057;28;20473;-75
2023/03/12 09:50:54;;;;;;;1.98;0.20;;;;;;;11.54;47.69;100496.28;5045498;28;20121;-75
2023/03/12 09:53:45;;;;;;;1.58;0.10;;;;;;;11.44;47.64;100489.50;5041998;28;20038;-76
2023/03/12 09:59:10;;;;;;;0.85;0.20;;;;;;;11.28;47.45;100495.41;5038399;28;20049;-76
2023/03/12 10:01:58;;;;;;;0.32;0.20;;;;;;;11.23;47.09;100498.44;5041693;28;20096;-76
2023/03/12 10:04:33;;;;;;;1.52;0.20;;;;;;;11.28;47.85;100496.22;5044742;28;20096;-77
2023/03/12 10:07:13;;;;;;;1.70;0.28;;;;;;;11.22;46.15;100496.81;5044373;28;20032;-76
2023/03/12 10:09:54;;;;;;;0.90;0.22;;;;;;;11.32;47.50;100495.94;5042447;28;20025;-76
2023/03/12 10:12:24;;;;;;;0.68;0.20;;;;;;;11.28;46.67;100496.22;5047582;28;20029;-73
2023/03/12 10:15:01;;;;;;;0.55;0.17;;;;;;;11.27;47.37;100488.53;5044378;28;20099;-74
2023/03/12 10:17:59;;;;;;;1.35;0.25;;;;;;;11.26;46.42;100495.56;5044187;28;20029;-74
2023/03/12 10:20:43;;;;;;;0.82;0.20;;;;;;;11.30;46.28;100498.69;5030202;28;20083;-73
2023/03/12 10:23:27;;;;;;;1.52;0.30;;;;;;;11.41;46.75;100495.81;5045138;28;20044;-74
2023/03/12 10:26:01;;;;;;;1.52;0.20;;;;;;;11.37;46.44;100499.69;5044523;28;20041;-73
2023/03/12 10:28:42;;;;;;;0.22;0.10;;;;;;;11.34;45.10;100497.41;5022239;28;20114;-73
2023/03/12 10:31:16;;;;;;;1.65;0.20;;;;;;;11.40;45.24;100496.78;5038856;28;20444;-73
2023/03/12 10:33:55;;;;;;;0.85;0.20;;;;;;;11.42;45.74;100491.44;5038490;28;20385;-73
2023/03/12 10:36:32;;;;;;;0.73;0.20;;;;;;;11.52;45.38;100493.00;5038137;28;20041;-74
2023/03/12 10:38:58;;;;;;;2.17;0.20;;;;;;;11.54;45.72;100487.63;5037154;28;20029;-72
2023/03/12 10:41:28;;;;;;;0.55;0.20;;;;;;;11.63;45.29;100487.56;5029894;28;20032;-74
2023/03/12 10:43:58;;;;;;;1.23;0.17;;;;;;;11.62;45.37;100488.53;5040728;28;20041;-73
2023/03/12 10:46:35;;;;;;;1.50;0.13;;;;;;;11.53;45.87;100478.97;5040233;28;20038;-72
2023/03/12 10:49:34;;;;;;;1.10;0.25;;;;;;;11.67;45.55;100475.03;5037071;28;20109;-72
2023/03/12 10:52:04;;;;;;;0.68;0.20;;;;;;;11.81;46.44;100481.53;5039356;28;20508;-72
2023/03/12 10:54:31;;;;;;;0.45;0.10;;;;;;;11.95;45.88;100478.34;5045155;28;20060;-73
2023/03/12 10:56:57;;;;;;;0.68;0.10;;;;;;;11.98;45.52;100472.81;5038141;28;20045;-72
2023/03/12 10:59:27;;;;;;;3.72;0.38;;;;;;;11.99;45.80;100484.91;5047111;28;20104;-72
2023/03/12 11:01:53;;;;;;;0.82;0.30;;;;;;;12.01;46.41;100487.38;5038935;28;20361;-72
2023/03/12 11:04:28;;;;;;;3.72;0.30;;;;;;;12.00;46.68;100480.50;5038666;28;20037;-72
2023/03/12 11:07:18;;;;;;;0.73;0.20;;;;;;;12.02;45.02;100470.72;5027500;28;20033;-72
2023/03/12 11:09:44;;;;;;;20.20;2.13;;;;;;;12.08;47.29;100477.94;5034932;28;20523;-72
2023/03/12 11:12:27;;;;;;;0.93;0.20;;;;;;;12.16;45.14;100478.81;5029322;28;20041;-72
2023/03/12 11:14:52;;;;;;;0.95;0.20;;;;;;;12.21;45.84;100478.38;5034856;28;20112;-73
2023/03/12 11:17:21;;;;;;;1.20;0.17;;;;;;;12.34;45.26;100485.75;5032292;28;20033;-73
2023/03/12 11:19:47;;;;;;;0.55;0.20;;;;;;;12.40;45.66;100477.28;5035717;28;20083;-72
2023/03/12 11:22:15;;;;;;;1.15;0.20;;;;;;;12.49;45.85;100473.75;5030226;28;20036;-72
2023/03/12 11:24:58;;;;;;;0.60;0.13;;;;;;;12.53;44.11;100478.50;5040313;28;20478;-73
2023/03/12 11:27:45;;;;;;;0.50;0.10;;;;;;;12.71;43.91;100473.22;5036133;28;20061;-73
2023/03/12 11:30:14;;;;;;;0.60;0.20;;;;;;;12.92;45.44;100481.44;5035319;28;20326;-73
2023/03/12 11:32:45;;;;;;;0.50;0.20;;;;;;;12.95;45.14;100488.94;5036222;28;20486;-73
2023/03/12 11:35:31;;;;;;;0.85;0.20;;;;;;;12.90;43.81;100486.00;5037154;28;20179;-74
2023/03/12 11:38:17;;;;;;;1.15;0.10;;;;;;;13.00;44.06;100500.75;5038308;28;20060;-73